Time;durP1;ratioP1;P1;durP2;ratioP2;P2;SDS_P1;SDS_P2;PMS_P1;PMS_P2;Temp;Humidity;BMP_temperature;BMP_pressure;BME280_temperature;BME280_humidity;BME280_pressure;Samples;Min_cycle;Max_cycle;Signal;HPM_P1;HPM_P2
2022/06/04 00:00:33;;;;;;;7.78;4.72;;;;;;;21.35;82.45;100061.44;4474662;32;34785;-58
2022/06/04 00:03:01;;;;;;;9.68;6.03;;;;;;;22.58;74.94;100048.59;4482174;32;33615;-58
2022/06/04 00:05:31;;;;;;;9.25;5.57;;;;;;;23.00;72.33;100039.75;4484759;32;34581;-58
2022/06/04 00:08:00;;;;;;;10.05;5.85;;;;;;;22.50;73.85;100039.81;4469499;32;32419;-58
2022/06/04 00:16:05;;;;;;;8.60;5.47;;;;;;;23.23;71.38;100027.37;4475528;32;34591;-58
2022/06/04 00:18:33;;;;;;;11.00;5.10;;;;;;;23.47;69.82;100014.94;4473999;32;33737;-58
2022/06/04 00:21:01;;;;;;;14.15;6.05;;;;;;;22.87;71.02;100007.19;4482284;31;34032;-58
2022/06/04 00:23:28;;;;;;;7.95;5.50;;;;;;;22.45;74.75;100004.59;4475759;32;34162;-58
2022/06/04 00:25:58;;;;;;;9.05;5.45;;;;;;;22.67;73.69;100009.87;4478162;32;34567;-58
2022/06/04 00:28:26;;;;;;;8.57;5.45;;;;;;;22.81;72.94;99997.50;4470545;32;34742;-58
2022/06/04 00:30:56;;;;;;;9.45;5.80;;;;;;;23.32;69.61;100006.19;4477027;32;33998;-58
2022/06/04 00:33:24;;;;;;;8.80;5.45;;;;;;;23.47;68.93;100013.19;4482143;32;34206;-58
2022/06/04 00:35:54;;;;;;;11.32;5.53;;;;;;;23.31;69.64;100009.75;4482904;32;33590;-58
2022/06/04 00:38:25;;;;;;;8.50;5.72;;;;;;;23.35;69.36;100006.22;4480742;32;33558;-58
2022/06/04 00:41:11;;;;;;;8.35;5.97;;;;;;;22.35;76.45;100010.78;4484996;32;35642;-58
2022/06/04 00:43:58;;;;;;;8.77;6.18;;;;;;;22.11;78.15;100017.75;4481353;32;33569;-58
2022/06/04 00:46:41;;;;;;;11.77;6.40;;;;;;;21.43;82.46;100007.88;4478618;32;34049;-58
2022/06/04 00:49:21;;;;;;;11.27;6.70;;;;;;;22.19;78.25;100007.19;4479719;32;34853;-58
2022/06/04 00:51:49;;;;;;;8.27;5.57;;;;;;;21.64;84.01;100008.00;4465157;32;33959;-58
2022/06/04 00:54:17;;;;;;;8.90;6.15;;;;;;;22.60;77.55;100002.81;4466516;32;34375;-58
2022/06/04 00:57:07;;;;;;;9.95;6.55;;;;;;;22.70;76.17;99992.25;4484403;32;33893;-58
2022/06/04 00:59:38;;;;;;;10.20;6.07;;;;;;;22.85;74.25;99983.44;4485623;32;34411;-58
2022/06/04 01:02:21;;;;;;;10.18;6.28;;;;;;;22.38;76.33;99987.00;4475563;32;32969;-58
2022/06/04 01:05:04;;;;;;;9.05;6.40;;;;;;;22.41;75.86;99976.47;4483688;32;33460;-58
2022/06/04 01:07:58;;;;;;;9.65;6.50;;;;;;;22.55;74.90;99974.66;4475011;32;34131;-58
2022/06/04 01:10:37;;;;;;;10.52;5.87;;;;;;;22.81;74.84;99965.81;4481212;32;34805;-58
2022/06/04 01:13:46;;;;;;;10.13;6.50;;;;;;;22.63;74.75;99950.03;4465277;32;33847;-58
2022/06/04 01:16:22;;;;;;;8.93;6.37;;;;;;;22.31;75.82;99943.00;4467623;32;33159;-58
2022/06/04 01:19:01;;;;;;;9.98;6.03;;;;;;;22.57;74.39;99938.59;4461838;32;33626;-59
2022/06/04 01:21:55;;;;;;;10.20;6.57;;;;;;;22.64;73.90;99933.28;4480247;32;33827;-59
2022/06/04 01:24:52;;;;;;;8.67;6.70;;;;;;;22.80;73.04;99927.09;4470016;32;33754;-58
2022/06/04 01:27:53;;;;;;;10.65;7.12;;;;;;;22.78;73.25;99918.31;4470805;32;34051;-58
2022/06/04 01:30:34;;;;;;;11.40;7.87;;;;;;;22.73;75.45;99914.78;4477925;32;33790;-58
2022/06/04 01:33:18;;;;;;;10.85;7.32;;;;;;;21.24;82.72;99923.50;4470918;32;33941;-58
2022/06/04 01:36:10;;;;;;;11.27;8.02;;;;;;;20.56;89.23;99933.66;4470151;32;33615;-58
2022/06/04 01:38:42;;;;;;;12.73;8.63;;;;;;;20.76;89.02;99940.84;4481568;32;33403;-58
2022/06/04 01:41:16;;;;;;;10.70;8.73;;;;;;;21.20;86.94;99948.06;4469516;32;33723;-59
2022/06/04 01:43:50;;;;;;;10.98;8.05;;;;;;;21.35;85.45;99953.38;4471359;32;33733;-59
2022/06/04 01:46:25;;;;;;;11.73;8.50;;;;;;;21.58;85.05;99956.13;4470792;32;34827;-58
2022/06/04 01:48:56;;;;;;;10.60;8.13;;;;;;;21.51;83.99;99969.28;4483784;32;33327;-58
2022/06/04 01:51:26;;;;;;;13.02;8.63;;;;;;;22.12;81.02;99971.16;4468798;32;33882;-58
2022/06/04 01:53:59;;;;;;;11.77;9.15;;;;;;;21.46;84.68;99971.00;4475074;32;33789;-58
2022/06/04 01:56:35;;;;;;;12.27;8.73;;;;;;;20.97;87.97;99977.81;4477456;32;33564;-58
2022/06/04 01:59:21;;;;;;;13.05;8.02;;;;;;;21.53;85.50;99978.06;4471902;32;34026;-58
2022/06/04 02:01:52;;;;;;;12.75;8.65;;;;;;;22.06;81.29;99966.75;4479705;32;33967;-58
2022/06/04 02:04:24;;;;;;;12.82;8.32;;;;;;;21.73;82.56;99960.56;4467750;32;34744;-58
2022/06/04 02:09:50;;;;;;;10.43;7.05;;;;;;;22.28;79.37;99954.47;4477566;32;33358;-58
2022/06/04 02:12:19;;;;;;;9.25;6.50;;;;;;;22.51;77.56;99941.25;4474690;32;33823;-58
2022/06/04 02:14:46;;;;;;;9.43;6.68;;;;;;;22.74;76.02;99940.31;4466492;32;34418;-58
2022/06/04 02:17:19;;;;;;;12.37;8.00;;;;;;;22.65;76.01;99933.28;4484957;32;33716;-58
2022/06/04 02:19:47;;;;;;;13.20;8.30;;;;;;;21.72;82.11;99932.41;4482399;32;34138;-58
2022/06/04 02:22:15;;;;;;;11.50;7.43;;;;;;;21.96;81.98;99928.03;4478796;32;33693;-58
2022/06/04 02:24:42;;;;;;;11.12;7.68;;;;;;;22.46;78.74;99921.88;4483565;32;33642;-58
2022/06/04 02:27:10;;;;;;;12.95;8.35;;;;;;;22.53;78.25;99928.91;4468870;32;34633;-58
2022/06/04 02:29:38;;;;;;;11.07;7.85;;;;;;;22.60;77.59;99937.72;4481134;32;34107;-58
2022/06/04 02:32:20;;;;;;;11.15;7.53;;;;;;;22.52;78.31;99943.00;4484025;32;33924;-58
2022/06/04 02:35:02;;;;;;;10.43;7.28;;;;;;;22.64;77.68;99946.50;4479848;32;34628;-58
2022/06/04 02:37:40;;;;;;;10.60;7.80;;;;;;;22.86;76.25;99937.63;4471586;32;34672;-58
2022/06/04 02:40:50;;;;;;;10.80;7.93;;;;;;;22.35;77.56;99934.25;4477938;32;34408;-58
2022/06/04 02:43:18;;;;;;;12.15;8.32;;;;;;;22.34;77.86;99932.47;4422186;32;34606;-58
2022/06/04 02:45:50;;;;;;;14.95;8.68;;;;;;;22.35;77.66;99937.75;4421583;32;33746;-58
2022/06/04 02:48:32;;;;;;;13.43;8.43;;;;;;;22.22;78.79;99937.75;4442140;32;33464;-58
2022/06/04 02:51:07;;;;;;;12.27;8.10;;;;;;;22.30;78.55;99930.72;4467685;32;33198;-58
2022/06/04 02:53:35;;;;;;;13.60;8.48;;;;;;;22.31;78.36;99928.09;4468153;32;33801;-58
2022/06/04 02:56:09;;;;;;;12.25;7.78;;;;;;;22.01;80.90;99934.22;4483731;32;32821;-58
2022/06/04 02:58:39;;;;;;;11.63;6.47;;;;;;;22.23;79.28;99936.84;4480417;32;33502;-58
2022/06/04 03:01:09;;;;;;;10.75;7.18;;;;;;;22.13;79.48;99918.38;4479586;32;34027;-58
2022/06/04 03:03:37;;;;;;;12.52;7.75;;;;;;;22.08;79.40;99917.50;4478277;32;34550;-58
2022/06/04 03:06:07;;;;;;;11.27;7.40;;;;;;;22.14;79.42;99912.22;4471187;32;34085;-58
2022/06/04 03:08:38;;;;;;;10.50;6.78;;;;;;;22.19;79.22;99913.12;4486450;32;33924;-58
2022/06/04 03:11:05;;;;;;;12.43;6.78;;;;;;;22.27;78.93;99915.78;4479696;32;33324;-58
2022/06/04 03:13:33;;;;;;;12.55;6.80;;;;;;;22.56;77.26;99913.09;4468468;32;34728;-58
2022/06/04 03:16:01;;;;;;;9.00;6.32;;;;;;;21.92;80.20;99918.38;4472901;32;33976;-58
2022/06/04 03:18:28;;;;;;;10.23;6.55;;;;;;;21.93;80.82;99925.44;4482366;32;33736;-58
2022/06/04 03:20:56;;;;;;;12.27;6.72;;;;;;;22.42;78.59;99924.53;4470043;32;31855;-58
2022/06/04 03:23:23;;;;;;;12.50;6.62;;;;;;;22.34;78.92;99921.91;4481032;32;33899;-58
2022/06/04 03:25:51;;;;;;;11.30;6.90;;;;;;;22.49;78.15;99927.16;4479610;32;34173;-58
2022/06/04 03:28:19;;;;;;;11.70;6.32;;;;;;;22.63;77.18;99924.50;4485524;32;34623;-58
2022/06/04 03:30:46;;;;;;;12.40;6.40;;;;;;;22.52;77.79;99926.28;4477451;32;33696;-58
2022/06/04 03:33:15;;;;;;;11.82;6.35;;;;;;;22.49;77.95;99927.16;4475545;32;33793;-58
2022/06/04 03:35:43;;;;;;;9.35;6.43;;;;;;;22.61;76.98;99923.63;4472763;32;34765;-58
2022/06/04 03:38:11;;;;;;;11.15;7.00;;;;;;;22.48;76.87;99924.53;4474222;32;34678;-58
2022/06/04 03:40:39;;;;;;;11.18;7.68;;;;;;;22.13;78.34;99921.00;4479258;32;34290;-58
2022/06/04 03:43:06;;;;;;;11.65;7.80;;;;;;;21.98;78.79;99916.63;4484477;32;34106;-58
2022/06/04 03:45:34;;;;;;;11.98;8.05;;;;;;;21.89;79.46;99915.75;4469576;32;32380;-58
2022/06/04 03:48:01;;;;;;;12.60;8.75;;;;;;;21.73;80.96;99907.84;4468054;32;32330;-58
2022/06/04 03:50:29;;;;;;;12.07;8.50;;;;;;;21.52;82.16;99899.91;4477843;32;34094;-58
2022/06/04 03:52:57;;;;;;;12.55;9.10;;;;;;;21.76;81.12;99906.94;4481420;32;33723;-58
2022/06/04 03:55:25;;;;;;;13.05;9.32;;;;;;;21.54;82.67;99911.31;4476794;32;34776;-58
2022/06/04 03:57:53;;;;;;;14.60;10.13;;;;;;;21.65;82.23;99917.47;4484370;32;34013;-58
2022/06/04 04:00:30;;;;;;;16.33;10.63;;;;;;;21.33;84.39;99913.00;4484375;32;34003;-58
2022/06/04 04:03:10;;;;;;;15.02;10.00;;;;;;;21.36;84.56;99915.66;4480044;32;33865;-58
2022/06/04 04:05:46;;;;;;;17.83;10.77;;;;;;;21.44;84.59;99909.53;4475113;32;33948;-58
2022/06/04 04:08:14;;;;;;;15.40;10.05;;;;;;;21.24;86.29;99912.94;4480056;32;33642;-58
2022/06/04 04:10:43;;;;;;;15.23;10.85;;;;;;;21.56;83.89;99920.09;4482837;32;33064;-58
2022/06/04 04:13:12;;;;;;;16.48;11.05;;;;;;;21.59;83.12;99921.00;4469294;32;33957;-58
2022/06/04 04:15:40;;;;;;;15.07;10.68;;;;;;;21.78;82.75;99928.91;4477525;32;34675;-58
2022/06/04 04:18:08;;;;;;;15.30;10.18;;;;;;;21.57;83.89;99919.22;4482555;32;34813;-58
2022/06/04 04:20:38;;;;;;;17.50;9.80;;;;;;;21.57;83.92;99927.13;4480401;32;34439;-58
2022/06/04 04:23:07;;;;;;;18.67;9.73;;;;;;;21.65;83.29;99933.28;4484380;32;33883;-58
2022/06/04 04:25:36;;;;;;;14.45;9.77;;;;;;;21.71;82.77;99941.22;4478629;32;34614;-58
2022/06/04 04:28:04;;;;;;;18.08;10.88;;;;;;;21.74;83.20;99958.78;4479645;32;33692;-58
2022/06/04 04:30:34;;;;;;;13.65;8.80;;;;;;;21.97;81.33;99964.09;4482365;32;34091;-58
2022/06/04 04:33:03;;;;;;;17.92;10.02;;;;;;;21.75;82.05;99990.44;4479749;32;33954;-58
2022/06/04 04:35:33;;;;;;;20.35;10.38;;;;;;;20.48;91.32;100032.72;4481458;32;34375;-58
2022/06/04 04:38:01;;;;;;;25.67;11.12;;;;;;;20.08;95.71;100006.06;4482013;31;34830;-58
2022/06/04 04:40:29;;;;;;;23.77;11.50;;;;;;;20.28;95.79;99994.84;4480676;32;33386;-58
2022/06/04 04:42:58;;;;;;;19.70;11.05;;;;;;;20.64;91.56;99977.63;4479211;31;34621;-58
2022/06/04 04:45:26;;;;;;;16.52;9.70;;;;;;;21.14;88.25;99977.03;4481569;31;33929;-58
2022/06/04 04:47:54;;;;;;;15.40;8.68;;;;;;;21.29;86.25;99974.47;4466033;32;33817;-58
2022/06/04 04:50:45;;;;;;;16.30;7.78;;;;;;;21.21;85.73;99986.72;4480969;31;33117;-58
2022/06/04 04:53:13;;;;;;;15.30;8.25;;;;;;;21.28;84.41;99988.47;4474869;32;33670;-58
2022/06/04 04:55:45;;;;;;;17.65;8.05;;;;;;;21.29;84.89;99977.09;4481833;32;34853;-58
2022/06/04 04:58:13;;;;;;;11.65;8.15;;;;;;;21.43;84.17;99977.13;4479480;32;34447;-58
2022/06/04 05:00:43;;;;;;;13.23;7.97;;;;;;;21.68;82.34;99972.84;4484023;31;33958;-58
2022/06/04 05:03:11;;;;;;;10.90;6.87;;;;;;;21.91;81.06;99972.88;4483821;32;33868;-58
2022/06/04 05:05:38;;;;;;;14.57;7.60;;;;;;;21.43;82.73;99976.25;4471349;31;33920;-58
2022/06/04 05:08:06;;;;;;;10.90;7.00;;;;;;;21.70;81.91;99970.22;4485371;31;33782;-58
2022/06/04 05:10:33;;;;;;;12.93;7.10;;;;;;;21.99;80.18;99972.91;4484844;31;33821;-58
2022/06/04 05:13:01;;;;;;;11.55;6.47;;;;;;;22.22;78.81;99962.34;4470860;32;32281;-58
2022/06/04 05:15:29;;;;;;;11.90;6.62;;;;;;;22.07;79.25;99954.44;4478285;32;34661;-58
2022/06/04 05:17:56;;;;;;;12.57;6.28;;;;;;;22.25;78.34;99958.84;4480080;31;33794;-58
2022/06/04 05:20:24;;;;;;;11.27;5.93;;;;;;;21.91;78.95;99969.38;4481969;32;33552;-58
2022/06/04 05:22:51;;;;;;;12.68;6.45;;;;;;;21.82;80.53;99985.19;4482654;32;34510;-58
2022/06/04 05:25:19;;;;;;;9.73;5.87;;;;;;;21.63;80.66;99979.84;4474323;32;34483;-58
2022/06/04 05:27:46;;;;;;;11.30;6.20;;;;;;;21.70;80.85;99986.91;4482206;32;34523;-58
2022/06/04 05:30:14;;;;;;;12.25;6.53;;;;;;;21.23;82.71;99984.06;4480630;32;33423;-58
2022/06/04 05:32:42;;;;;;;11.10;6.55;;;;;;;21.34;82.63;99978.00;4476279;32;33603;-58
2022/06/04 05:35:09;;;;;;;11.20;6.93;;;;;;;21.04;84.95;99983.13;4474439;32;34559;-58
2022/06/04 05:37:37;;;;;;;11.10;6.75;;;;;;;21.55;81.75;99971.06;4481898;32;34613;-58
2022/06/04 05:40:06;;;;;;;11.93;6.28;;;;;;;21.85;79.58;99969.38;4469987;32;34855;-58
2022/06/04 05:42:34;;;;;;;10.50;6.25;;;;;;;22.03;79.37;99971.16;4485235;31;33731;-58
2022/06/04 05:45:02;;;;;;;8.77;6.10;;;;;;;21.44;81.41;99967.50;4477966;32;34529;-58
2022/06/04 05:47:29;;;;;;;8.82;5.70;;;;;;;22.01;78.87;99971.13;4472697;32;33730;-58
2022/06/04 05:49:57;;;;;;;9.55;5.20;;;;;;;22.41;75.99;99971.19;4479887;31;34165;-58
2022/06/04 05:52:24;;;;;;;10.60;5.37;;;;;;;21.96;78.23;99976.41;4482178;32;35263;-58
2022/06/04 05:54:52;;;;;;;8.52;5.68;;;;;;;22.22;76.78;99979.94;4480927;32;34548;-58
2022/06/04 05:57:20;;;;;;;11.05;5.10;;;;;;;22.26;76.46;99972.06;4480415;32;34425;-58
2022/06/04 05:59:49;;;;;;;13.00;5.03;;;;;;;22.06;78.14;99974.66;4482353;32;33343;-58
2022/06/04 06:02:16;;;;;;;7.45;4.70;;;;;;;21.71;79.40;99979.88;4478824;32;33867;-58
2022/06/04 06:04:44;;;;;;;9.68;5.20;;;;;;;21.94;77.86;99972.00;4474571;32;33833;-58
2022/06/04 06:07:11;;;;;;;8.27;4.97;;;;;;;22.23;76.47;99968.50;4477793;32;33859;-58
2022/06/04 06:09:39;;;;;;;8.63;5.22;;;;;;;22.01;77.52;99971.13;4483529;32;33228;-58
2022/06/04 06:12:08;;;;;;;8.77;4.85;;;;;;;21.91;77.74;99961.47;4479401;32;33938;-58
2022/06/04 06:14:35;;;;;;;10.98;4.95;;;;;;;21.87;78.84;99957.94;4474658;32;33694;-58
2022/06/04 06:17:03;;;;;;;7.82;4.87;;;;;;;21.34;81.53;99972.72;4482454;32;34011;-58
2022/06/04 06:19:31;;;;;;;9.68;5.05;;;;;;;21.48;81.15;99977.16;4471791;32;33294;-58
2022/06/04 06:25:42;;;;;;;9.68;5.15;;;;;;;22.15;77.22;99974.66;4478480;31;33515;-58
2022/06/04 06:28:10;;;;;;;11.57;4.90;;;;;;;21.79;79.10;99968.47;4482673;32;34613;-58
2022/06/04 06:30:38;;;;;;;8.07;4.60;;;;;;;21.87;78.52;99971.13;4479205;32;34009;-58
2022/06/04 06:33:05;;;;;;;8.80;5.10;;;;;;;21.53;79.44;99962.25;4481813;32;33592;-58
2022/06/04 06:35:33;;;;;;;11.70;5.00;;;;;;;21.83;78.68;99956.19;4481279;32;33501;-58
2022/06/04 06:38:00;;;;;;;9.73;4.87;;;;;;;21.73;79.21;99955.28;4485019;32;34568;-58
2022/06/04 06:40:28;;;;;;;9.27;5.07;;;;;;;22.32;76.08;99965.91;4484786;32;34066;-58
2022/06/04 06:42:56;;;;;;;8.85;4.53;;;;;;;22.05;77.67;99966.75;4482128;32;34625;-58
2022/06/04 06:45:23;;;;;;;10.18;5.18;;;;;;;22.29;76.40;99965.88;4485453;32;34629;-58
2022/06/04 06:47:51;;;;;;;8.65;4.30;;;;;;;22.07;77.13;99963.22;4463914;32;33334;-58
2022/06/04 06:50:19;;;;;;;8.75;4.80;;;;;;;21.54;80.42;99969.31;4481831;32;34410;-59
2022/06/04 06:52:47;;;;;;;10.02;4.87;;;;;;;22.12;77.50;99966.75;4484499;32;34510;-59
2022/06/04 06:55:15;;;;;;;8.52;4.60;;;;;;;22.05;77.37;99961.47;4484929;32;33834;-59
2022/06/04 06:57:42;;;;;;;6.53;4.28;;;;;;;21.97;78.01;99964.09;4485313;32;34273;-59
2022/06/04 07:00:10;;;;;;;8.15;4.78;;;;;;;22.02;77.50;99961.47;4482735;32;33878;-59
2022/06/04 07:02:38;;;;;;;8.27;4.87;;;;;;;22.05;76.93;99957.06;4485521;32;34559;-59
2022/06/04 07:05:06;;;;;;;8.30;4.80;;;;;;;22.09;76.64;99958.81;4484410;32;33985;-59
2022/06/04 07:07:34;;;;;;;10.88;4.82;;;;;;;21.86;77.80;99956.16;4481187;32;33846;-59
2022/06/04 07:10:03;;;;;;;9.15;4.78;;;;;;;22.17;76.50;99949.19;4478762;32;34232;-59
2022/06/04 07:12:31;;;;;;;12.15;5.20;;;;;;;22.12;76.16;99953.56;4484296;32;32888;-59
2022/06/04 07:14:59;;;;;;;9.77;5.03;;;;;;;22.05;77.07;99951.78;4484436;32;34511;-59
2022/06/04 07:17:28;;;;;;;8.98;5.10;;;;;;;21.90;78.35;99946.50;4468348;32;34574;-60
2022/06/04 07:19:56;;;;;;;9.23;5.45;;;;;;;22.20;76.85;99948.28;4465361;32;31638;-58
2022/06/04 07:22:23;;;;;;;8.82;5.07;;;;;;;22.12;77.36;99953.56;4481613;32;34514;-58
2022/06/04 07:24:55;;;;;;;10.50;5.37;;;;;;;22.30;76.69;99957.09;4483573;32;34727;-58
2022/06/04 07:27:22;;;;;;;9.30;5.45;;;;;;;22.07;77.57;99951.81;4470575;32;33596;-58
2022/06/04 07:29:50;;;;;;;8.80;5.60;;;;;;;22.16;77.01;99936.84;4483856;32;33349;-58
2022/06/04 07:32:17;;;;;;;9.45;6.12;;;;;;;22.31;76.64;99933.37;4484973;32;33847;-59
2022/06/04 07:34:45;;;;;;;11.12;5.90;;;;;;;22.32;76.70;99936.88;4468154;32;33907;-59
2022/06/04 07:37:13;;;;;;;11.55;6.25;;;;;;;22.41;76.50;99943.88;4482073;31;35090;-59
2022/06/04 07:39:40;;;;;;;8.55;5.65;;;;;;;22.27;77.19;99941.25;4480439;32;33584;-59
2022/06/04 07:42:08;;;;;;;10.15;6.47;;;;;;;22.40;76.44;99943.00;4471475;32;34505;-59
2022/06/04 07:44:35;;;;;;;15.00;6.22;;;;;;;22.68;75.62;99943.00;4478920;32;33862;-59
2022/06/04 07:47:03;;;;;;;9.80;5.95;;;;;;;22.71;75.72;99942.97;4481605;32;34749;-59
2022/06/04 07:49:31;;;;;;;11.15;6.22;;;;;;;22.74;75.63;99954.41;4483153;32;34068;-58
2022/06/04 07:51:58;;;;;;;9.55;6.30;;;;;;;22.48;77.33;99951.78;4482000;32;33654;-58
2022/06/04 07:54:26;;;;;;;14.90;6.95;;;;;;;22.72;76.56;99950.00;4482232;32;34838;-59
2022/06/04 07:56:54;;;;;;;11.57;6.53;;;;;;;22.71;76.76;99945.59;4478683;32;33791;-58
2022/06/04 07:59:23;;;;;;;10.35;6.47;;;;;;;23.01;75.98;99943.78;4463852;32;33482;-58
2022/06/04 08:01:50;;;;;;;15.48;6.53;;;;;;;23.22;75.38;99941.06;4480552;32;34279;-58
2022/06/04 08:04:18;;;;;;;10.43;6.70;;;;;;;23.20;75.56;99937.56;4483959;32;33558;-58
2022/06/04 08:06:46;;;;;;;11.35;6.80;;;;;;;23.14;76.45;99940.19;4481355;32;33780;-58
2022/06/04 08:09:13;;;;;;;10.10;5.85;;;;;;;22.92;77.51;99932.31;4481447;32;34087;-59
2022/06/04 08:11:41;;;;;;;9.32;6.62;;;;;;;23.14;76.46;99927.00;4480376;32;34662;-59
2022/06/04 08:14:19;;;;;;;11.40;6.80;;;;;;;23.52;75.14;99939.13;4478933;32;33743;-58
2022/06/04 08:16:51;;;;;;;12.95;6.47;;;;;;;23.56;74.79;99940.87;4476584;32;33569;-59
2022/06/04 08:19:21;;;;;;;9.00;6.15;;;;;;;23.60;74.90;99937.31;4480301;32;33062;-59
2022/06/04 08:21:50;;;;;;;10.13;6.20;;;;;;;23.36;76.22;99933.06;4473685;32;33721;-59
2022/06/04 08:24:18;;;;;;;9.63;6.28;;;;;;;23.47;76.11;99928.59;4480176;32;33636;-59
2022/06/04 08:26:47;;;;;;;14.35;6.28;;;;;;;23.50;75.81;99930.34;4474129;32;34690;-59
2022/06/04 08:29:15;;;;;;;10.77;6.50;;;;;;;23.55;75.81;99924.13;4468393;32;33576;-59
2022/06/04 08:31:45;;;;;;;11.12;6.25;;;;;;;23.66;75.47;99921.44;4477573;32;33665;-58
2022/06/04 08:34:12;;;;;;;9.48;6.60;;;;;;;23.90;74.59;99932.75;4480819;32;33825;-58
2022/06/04 08:36:41;;;;;;;8.70;6.40;;;;;;;24.00;73.60;99937.06;4480522;32;33651;-58
2022/06/04 08:39:09;;;;;;;9.65;6.57;;;;;;;24.18;72.17;99937.81;4484992;32;33560;-58
2022/06/04 08:41:46;;;;;;;11.05;6.18;;;;;;;23.51;75.91;99934.75;4480239;32;33765;-59
2022/06/04 08:44:25;;;;;;;10.98;6.78;;;;;;;23.90;74.45;99936.28;4467352;32;34604;-58
2022/06/04 08:47:10;;;;;;;8.60;6.12;;;;;;;23.15;75.59;99934.03;4458367;32;34032;-58
2022/06/04 08:49:48;;;;;;;11.93;6.20;;;;;;;23.68;73.31;99937.28;4469317;32;33453;-59
2022/06/04 08:52:22;;;;;;;9.77;6.45;;;;;;;24.04;72.49;99938.81;4465706;32;35083;-58
2022/06/04 08:57:57;;;;;;;10.80;7.40;;;;;;;24.01;72.79;99938.84;4469722;32;34456;-57
2022/06/04 09:00:32;;;;;;;8.38;6.12;;;;;;;22.27;82.51;99947.44;4480984;32;32936;-58
2022/06/04 09:03:10;;;;;;;11.00;7.20;;;;;;;21.74;85.17;99941.22;4469155;32;34574;-58
2022/06/04 09:05:50;;;;;;;13.55;6.53;;;;;;;21.43;87.26;99942.00;4468059;32;34015;-58
2022/06/04 09:08:32;;;;;;;9.18;6.30;;;;;;;21.72;86.22;99945.59;4482233;32;33845;-58
2022/06/04 09:11:03;;;;;;;10.15;6.87;;;;;;;21.69;87.23;99937.72;4485621;32;34076;-58
2022/06/04 09:13:35;;;;;;;10.30;6.90;;;;;;;21.83;87.60;99947.37;4468798;32;33889;-58
2022/06/04 09:16:15;;;;;;;13.52;6.60;;;;;;;22.09;86.85;99956.19;4470793;32;32687;-58
2022/06/04 09:18:43;;;;;;;7.72;5.97;;;;;;;22.08;86.37;99946.53;4467629;32;34539;-58
2022/06/04 09:21:11;;;;;;;12.23;5.93;;;;;;;22.21;85.50;99951.78;4471402;32;34299;-58
2022/06/04 09:23:45;;;;;;;7.18;4.87;;;;;;;21.82;86.26;99950.91;4469841;32;34707;-58
2022/06/04 09:26:17;;;;;;;7.00;4.32;;;;;;;21.73;84.58;99944.75;4469312;32;34879;-58
2022/06/04 09:29:04;;;;;;;6.07;4.43;;;;;;;22.22;83.74;99945.66;4458582;32;32293;-58
2022/06/04 09:32:00;;;;;;;5.93;4.00;;;;;;;22.79;81.29;99935.88;4483847;32;32334;-58
2022/06/04 09:34:32;;;;;;;7.50;3.62;;;;;;;23.20;80.50;99937.56;4464707;32;33492;-58
2022/06/04 09:37:00;;;;;;;6.15;3.75;;;;;;;22.79;78.90;99933.25;4471242;32;33664;-58
2022/06/04 09:39:30;;;;;;;7.68;3.90;;;;;;;23.18;76.66;99939.31;4479337;32;34447;-59
2022/06/04 09:42:18;;;;;;;6.32;3.22;;;;;;;22.81;79.01;99936.75;4483540;32;34063;-59
2022/06/04 09:45:01;;;;;;;5.90;3.30;;;;;;;23.63;75.94;99937.31;4479707;32;34331;-58
2022/06/04 09:47:39;;;;;;;4.90;2.70;;;;;;;24.10;76.89;99930.81;4479964;32;34057;-58
2022/06/04 09:50:27;;;;;;;6.62;2.42;;;;;;;23.71;74.80;99930.19;4452544;32;32345;-58
2022/06/04 09:52:58;;;;;;;4.80;2.20;;;;;;;24.09;73.38;99937.00;4472396;32;33188;-59
2022/06/04 09:55:26;;;;;;;5.20;1.70;;;;;;;24.09;73.33;99931.72;4484129;32;32641;-59
2022/06/04 09:58:01;;;;;;;3.92;1.65;;;;;;;24.12;67.06;99938.75;4477130;32;33896;-58
2022/06/04 10:00:38;;;;;;;4.05;1.87;;;;;;;24.45;69.65;99929.59;4475958;32;33895;-58
2022/06/04 10:03:17;;;;;;;2.95;1.55;;;;;;;24.24;69.51;99935.09;4480828;32;33401;-58
2022/06/04 10:06:15;;;;;;;3.25;1.50;;;;;;;24.58;65.60;99934.81;4478400;32;34581;-58
2022/06/04 10:11:52;;;;;;;3.05;1.62;;;;;;;24.69;65.30;99938.25;4480315;32;35257;-59
2022/06/04 10:14:33;;;;;;;3.55;1.65;;;;;;;25.04;66.07;99934.31;4464938;32;33587;-58
2022/06/04 10:17:04;;;;;;;5.55;1.90;;;;;;;24.50;69.51;99926.94;4469323;32;33630;-59
2022/06/04 10:19:33;;;;;;;6.43;2.03;;;;;;;24.88;66.50;99929.19;4477232;32;33617;-59
2022/06/04 10:22:10;;;;;;;4.18;1.73;;;;;;;25.10;66.51;99926.28;4478529;32;34596;-59
2022/06/04 10:24:49;;;;;;;6.35;1.80;;;;;;;25.68;60.84;99933.44;4462805;32;33148;-59
2022/06/04 10:27:32;;;;;;;3.42;1.70;;;;;;;25.37;62.98;99933.03;4477626;32;33105;-58
2022/06/04 10:30:09;;;;;;;4.43;1.77;;;;;;;24.13;67.52;99938.72;4477945;31;33663;-58
2022/06/04 10:33:12;;;;;;;5.70;2.17;;;;;;;24.16;67.26;99944.88;4479667;32;34546;-58
2022/06/04 10:35:56;;;;;;;5.30;2.00;;;;;;;24.95;61.87;99937.06;4471422;32;33982;-58
2022/06/04 10:38:30;;;;;;;4.47;2.00;;;;;;;24.16;65.38;99943.13;4480821;32;33739;-58
2022/06/04 10:41:20;;;;;;;4.75;2.22;;;;;;;24.24;66.30;99943.03;4472934;32;33666;-58
2022/06/04 10:43:56;;;;;;;4.90;2.10;;;;;;;24.37;66.09;99944.69;4481192;32;33980;-57
2022/06/04 10:46:23;;;;;;;4.15;2.28;;;;;;;24.65;66.48;99942.69;4453113;32;31446;-58
2022/06/04 10:49:28;;;;;;;5.03;2.30;;;;;;;24.83;64.00;99946.91;4474825;32;33653;-58
2022/06/04 10:52:23;;;;;;;6.07;2.45;;;;;;;25.16;63.91;99944.75;4478501;31;33642;-58
2022/06/04 10:55:06;;;;;;;5.15;2.60;;;;;;;24.63;66.69;99938.31;4491321;31;34595;-58
2022/06/04 10:57:54;;;;;;;4.93;2.33;;;;;;;24.93;65.92;99940.59;4480586;32;34165;-58
2022/06/04 11:00:47;;;;;;;4.85;2.58;;;;;;;25.46;64.30;99943.50;4483222;31;33887;-58
2022/06/04 11:03:25;;;;;;;4.72;2.53;;;;;;;25.70;62.83;99939.59;4462121;32;32109;-58
2022/06/04 11:06:06;;;;;;;4.65;3.08;;;;;;;25.79;59.58;99951.00;4466643;32;34443;-58
2022/06/04 11:08:42;;;;;;;4.65;2.33;;;;;;;25.62;60.89;99949.47;4475799;32;33847;-58
2022/06/04 11:11:19;;;;;;;6.10;2.50;;;;;;;25.86;59.44;99953.53;4464678;32;33620;-58
2022/06/04 11:13:54;;;;;;;3.75;2.37;;;;;;;25.62;60.40;99960.06;4465495;32;34486;-58
2022/06/04 11:16:38;;;;;;;2.87;1.80;;;;;;;25.94;58.83;99955.22;4482452;32;33996;-58
2022/06/04 11:19:33;;;;;;;3.30;2.20;;;;;;;26.19;57.74;99966.31;4471941;32;34319;-58
2022/06/04 11:22:38;;;;;;;5.00;2.25;;;;;;;26.28;56.04;99963.50;4466908;32;33975;-58
2022/06/04 11:25:14;;;;;;;6.82;2.33;;;;;;;25.38;59.40;99963.06;4468163;32;33588;-58
2022/06/04 11:27:48;;;;;;;4.95;2.50;;;;;;;25.38;59.26;99979.88;4480818;32;33654;-58
2022/06/04 11:30:16;;;;;;;;;;;;;;;25.57;60.00;99972.50;4472852;32;33318;-58
2022/06/04 11:32:56;;;;;;;3.47;2.00;;;;;;;25.08;61.34;99971.34;4469147;32;32849;-58
2022/06/04 11:35:39;;;;;;;4.70;2.35;;;;;;;25.72;56.96;99965.25;4484301;32;33828;-58
2022/06/04 11:38:20;;;;;;;3.90;2.30;;;;;;;25.45;59.23;99967.38;4483614;32;33906;-58
2022/06/04 11:40:59;;;;;;;3.95;2.40;;;;;;;25.59;59.08;99970.72;4486377;32;33454;-58
2022/06/04 11:44:05;;;;;;;4.00;1.92;;;;;;;26.02;58.88;99970.13;4485548;32;33957;-58
2022/06/04 11:47:08;;;;;;;3.22;1.98;;;;;;;26.08;58.56;99967.38;4483570;32;33800;-58
2022/06/04 11:50:00;;;;;;;4.28;2.45;;;;;;;26.38;58.74;99964.22;4481727;32;33945;-58
2022/06/04 11:52:34;;;;;;;4.43;2.12;;;;;;;26.55;54.75;99963.94;4483356;32;33833;-58
2022/06/04 11:55:40;;;;;;;3.60;2.10;;;;;;;26.00;56.34;99971.94;4470035;32;34712;-58
2022/06/04 11:58:18;;;;;;;4.43;2.53;;;;;;;25.85;56.50;99972.13;4450305;32;33741;-58
2022/06/04 12:00:47;;;;;;;4.12;2.78;;;;;;;26.08;57.67;99982.44;4470387;32;34682;-58
2022/06/04 12:03:32;;;;;;;4.05;2.50;;;;;;;26.31;56.81;99979.41;4482144;32;34310;-58
2022/06/04 12:06:00;;;;;;;4.87;2.15;;;;;;;25.88;57.52;99977.38;4466535;32;33877;-58
2022/06/04 12:08:33;;;;;;;4.07;2.30;;;;;;;26.33;56.89;99980.25;4483582;32;33764;-58
2022/06/04 12:11:17;;;;;;;4.20;2.37;;;;;;;26.23;57.19;99984.84;4468860;32;34575;-58
2022/06/04 12:13:50;;;;;;;4.00;2.17;;;;;;;25.82;58.36;99982.78;4463727;32;33562;-58
2022/06/04 12:16:33;;;;;;;4.80;1.85;;;;;;;25.63;57.41;99977.75;4484677;32;34475;-58